Time;durP1;ratioP1;P1;durP2;ratioP2;P2;SDS_P1;SDS_P2;PMS_P1;PMS_P2;Temp;Humidity;BMP_temperature;BMP_pressure;BME280_temperature;BME280_humidity;BME280_pressure;Samples;Min_cycle;Max_cycle;Signal;HPM_P1;HPM_P2
2022/09/11 00:00:37;;;;;;;29.77;24.15;;;15.80;99.90;;;;;;5055542;28;20414;-74
2022/09/11 00:03:03;;;;;;;30.15;23.83;;;15.50;99.90;;;;;;5055408;28;20496;-74
2022/09/11 00:05:29;;;;;;;28.88;22.63;;;15.50;99.90;;;;;;5037613;28;20398;-75
2022/09/11 00:07:56;;;;;;;28.17;22.23;;;15.60;99.90;;;;;;5037640;28;20411;-74
2022/09/11 00:10:23;;;;;;;29.80;21.90;;;15.40;99.90;;;;;;5037616;28;20041;-75
2022/09/11 00:12:49;;;;;;;26.73;21.73;;;15.50;99.90;;;;;;5037263;28;20410;-75
2022/09/11 00:15:15;;;;;;;28.65;21.58;;;15.50;99.90;;;;;;5020525;28;20033;-75
2022/09/11 00:17:41;;;;;;;28.98;21.75;;;15.40;99.90;;;;;;5055230;28;20457;-74
2022/09/11 00:20:07;;;;;;;33.08;23.13;;;15.50;99.90;;;;;;5055083;28;20036;-75
2022/09/11 00:22:33;;;;;;;30.15;23.02;;;15.50;99.90;;;;;;5037152;28;20098;-75
2022/09/11 00:24:58;;;;;;;25.58;21.10;;;15.50;99.90;;;;;;5054690;28;20091;-74
2022/09/11 00:27:24;;;;;;;34.88;22.13;;;15.70;99.90;;;;;;5037237;28;20043;-74
2022/09/11 00:29:50;;;;;;;26.75;21.67;;;15.40;99.90;;;;;;5037002;28;20037;-74
2022/09/11 00:32:15;;;;;;;25.55;21.08;;;15.30;99.90;;;;;;5020465;28;20509;-75
2022/09/11 00:34:41;;;;;;;26.52;21.60;;;15.40;99.90;;;;;;5036771;28;20041;-74
2022/09/11 00:37:08;;;;;;;26.77;20.50;;;15.40;99.90;;;;;;5037240;28;20053;-74
2022/09/11 00:39:33;;;;;;;26.35;21.30;;;15.30;99.90;;;;;;5054724;28;20037;-74
2022/09/11 00:41:59;;;;;;;27.95;21.88;;;15.20;99.90;;;;;;5020575;28;20464;-74
2022/09/11 00:44:27;;;;;;;28.92;21.30;;;15.30;99.90;;;;;;5020536;28;20040;-74
2022/09/11 00:46:54;;;;;;;25.92;20.77;;;15.20;99.90;;;;;;5020329;28;20048;-75
2022/09/11 00:49:22;;;;;;;28.33;21.38;;;15.60;99.90;;;;;;5054601;28;20383;-74
2022/09/11 00:51:52;;;;;;;24.95;21.02;;;15.30;99.90;;;;;;5054362;28;20548;-74
2022/09/11 00:54:23;;;;;;;26.75;19.70;;;15.20;99.90;;;;;;5036437;28;20037;-74
2022/09/11 00:56:49;;;;;;;25.45;19.48;;;15.30;99.90;;;;;;5054662;28;20068;-74
2022/09/11 00:59:15;;;;;;;24.67;19.17;;;15.30;99.90;;;;;;5036752;28;20053;-74
2022/09/11 01:01:41;;;;;;;26.17;20.27;;;15.30;99.90;;;;;;5054418;28;20114;-74
2022/09/11 01:04:07;;;;;;;24.35;18.75;;;15.30;99.90;;;;;;5036129;28;20080;-75
2022/09/11 01:06:33;;;;;;;25.00;21.15;;;15.20;99.90;;;;;;5035911;28;20090;-74
2022/09/11 01:08:58;;;;;;;24.05;19.73;;;15.40;99.90;;;;;;5053517;28;20037;-74
2022/09/11 01:11:41;;;;;;;26.15;20.17;;;15.40;99.90;;;;;;5036393;28;20044;-74
2022/09/11 01:14:33;;;;;;;23.73;19.52;;;15.30;99.90;;;;;;5036006;28;20045;-74
2022/09/11 01:17:19;;;;;;;26.00;20.23;;;15.20;99.90;;;;;;5019775;28;20158;-74
2022/09/11 01:20:14;;;;;;;26.92;20.00;;;15.50;99.90;;;;;;5053589;28;20045;-74
2022/09/11 01:23:01;;;;;;;24.05;18.50;;;15.10;99.90;;;;;;5036111;28;20049;-75
2022/09/11 01:25:35;;;;;;;23.75;18.65;;;15.20;99.90;;;;;;5036061;28;20410;-74
2022/09/11 01:28:11;;;;;;;25.50;19.88;;;15.30;99.90;;;;;;5054174;28;20410;-74
2022/09/11 01:30:42;;;;;;;23.45;18.77;;;15.00;99.90;;;;;;5036106;28;20072;-75
2022/09/11 01:33:25;;;;;;;23.38;18.98;;;15.00;99.90;;;;;;5035888;28;20553;-74
2022/09/11 01:36:17;;;;;;;23.48;18.80;;;15.00;99.90;;;;;;5035722;28;20060;-74
2022/09/11 01:38:46;;;;;;;23.20;17.48;;;15.20;99.90;;;;;;5035855;28;20032;-75
2022/09/11 01:41:22;;;;;;;22.67;18.65;;;15.00;99.90;;;;;;5053619;28;20387;-74
2022/09/11 01:43:55;;;;;;;24.60;18.00;;;14.80;99.90;;;;;;5053424;28;20037;-75
2022/09/11 01:46:22;;;;;;;;;;;15.50;99.90;;;;;;5036509;28;20045;-74
2022/09/11 01:48:53;;;;;;;22.20;18.02;;;15.00;99.90;;;;;;5035760;28;19959;-74
2022/09/11 01:51:25;;;;;;;20.50;17.05;;;15.10;99.90;;;;;;5054087;28;20502;-74
2022/09/11 01:53:55;;;;;;;21.08;16.80;;;14.90;99.90;;;;;;5035621;28;20041;-76
2022/09/11 01:56:25;;;;;;;21.10;17.77;;;14.60;99.90;;;;;;5036261;28;20076;-74
2022/09/11 01:58:57;;;;;;;22.30;17.33;;;14.80;99.90;;;;;;5035983;28;20029;-74
2022/09/11 02:01:28;;;;;;;20.73;17.45;;;14.80;99.90;;;;;;5035778;28;20041;-74
2022/09/11 02:04:09;;;;;;;23.08;17.38;;;15.10;99.90;;;;;;5035432;28;20089;-74
2022/09/11 02:06:56;;;;;;;24.55;16.98;;;14.70;99.90;;;;;;5035931;28;20071;-74
2022/09/11 02:09:26;;;;;;;21.58;17.55;;;14.70;99.90;;;;;;5053361;28;20086;-74
2022/09/11 02:11:54;;;;;;;23.60;17.83;;;15.00;99.90;;;;;;5035569;28;20052;-74
2022/09/11 02:14:28;;;;;;;20.73;16.48;;;14.60;99.90;;;;;;5035063;28;20491;-74
2022/09/11 02:17:30;;;;;;;20.65;16.33;;;14.70;99.90;;;;;;5035134;28;20052;-74
2022/09/11 02:19:59;;;;;;;18.75;15.60;;;14.80;99.90;;;;;;5018274;28;20041;-74
2022/09/11 02:22:24;;;;;;;21.05;16.63;;;14.90;99.90;;;;;;5052979;28;20045;-74
2022/09/11 02:24:51;;;;;;;19.13;16.60;;;14.60;99.90;;;;;;5052501;28;20040;-74
2022/09/11 02:27:21;;;;;;;20.15;16.77;;;14.70;99.90;;;;;;5052833;28;20036;-74
2022/09/11 02:29:47;;;;;;;20.10;16.73;;;14.60;99.90;;;;;;5034768;28;20123;-74
2022/09/11 02:32:13;;;;;;;20.30;16.55;;;14.30;99.90;;;;;;5034965;28;20037;-74
2022/09/11 02:34:44;;;;;;;22.02;17.08;;;;;;;;;;5052472;28;20059;-74
2022/09/11 02:37:12;;;;;;;21.15;16.67;;;14.40;99.90;;;;;;5052741;28;20415;-74
2022/09/11 02:40:02;;;;;;;21.38;16.33;;;14.30;99.90;;;;;;5052529;28;20376;-74
2022/09/11 02:42:41;;;;;;;19.73;15.48;;;14.40;99.90;;;;;;5035077;28;20048;-74
2022/09/11 02:45:22;;;;;;;21.05;16.48;;;14.60;99.90;;;;;;5018032;28;20131;-75
2022/09/11 02:48:10;;;;;;;18.08;15.13;;;14.50;99.90;;;;;;5053049;28;20041;-74
2022/09/11 02:50:57;;;;;;;19.83;15.35;;;14.30;99.90;;;;;;5017934;28;20040;-74
2022/09/11 02:53:57;;;;;;;20.17;16.17;;;14.40;99.90;;;;;;5034559;28;20502;-74
2022/09/11 02:56:33;;;;;;;20.13;15.48;;;;;;;;;;5052191;28;20033;-75
2022/09/11 02:59:01;;;;;;;21.88;15.43;;;;;;;;;;5034561;28;20076;-74
2022/09/11 03:01:27;;;;;;;19.60;15.73;;;;;;;;;;5017913;28;20037;-74
2022/09/11 03:03:53;;;;;;;20.77;15.82;;;;;;;;;;5051911;28;20128;-73
2022/09/11 03:06:21;;;;;;;19.77;15.82;;;;;;;;;;5018086;28;20125;-74
2022/09/11 03:08:47;;;;;;;19.42;14.95;;;;;;;;;;5034200;28;20049;-74
2022/09/11 03:11:14;;;;;;;18.90;16.02;;;;;;;;;;5051941;28;20041;-74
2022/09/11 03:13:40;;;;;;;21.80;16.92;;;;;;;;;;5051953;28;20060;-75
2022/09/11 03:16:06;;;;;;;18.55;16.00;;;;;;;;;;5051855;28;20115;-75
2022/09/11 03:18:33;;;;;;;19.30;15.73;;;;;;;;;;5017410;28;20517;-75
2022/09/11 03:20:59;;;;;;;17.88;14.25;;;;;;;;;;5051947;28;20079;-74
2022/09/11 03:23:25;;;;;;;20.10;14.65;;;;;;;;;;5017682;28;20041;-74
2022/09/11 03:25:51;;;;;;;19.25;14.70;;;;;;;;;;5051343;28;20041;-74
2022/09/11 03:28:17;;;;;;;19.85;15.23;;;;;;;;;;5033750;28;20415;-74
2022/09/11 03:30:43;;;;;;;19.10;14.50;;;;;;;;;;5033066;28;20041;-74
2022/09/11 03:33:10;;;;;;;20.15;14.20;;;;;;;;;;5017337;28;20648;-75
2022/09/11 03:35:36;;;;;;;17.20;14.23;;;;;;;;;;5033647;28;20033;-74
2022/09/11 03:38:02;;;;;;;15.95;13.27;;;;;;;;;;5017699;28;20045;-74
2022/09/11 03:40:28;;;;;;;19.00;14.35;;;;;;;;;;5051438;28;20044;-74
2022/09/11 03:42:54;;;;;;;16.10;12.70;;;;;;;;;;5034012;28;20450;-74
2022/09/11 03:45:20;;;;;;;18.98;13.68;;;;;;;;;;5033354;28;20041;-74
2022/09/11 03:47:46;;;;;;;16.33;12.70;;;;;;;;;;5033953;28;20084;-75
2022/09/11 03:50:12;;;;;;;16.25;12.73;;;;;;;;;;5051510;28;20052;-74
2022/09/11 03:52:38;;;;;;;17.65;13.40;;;;;;;;;;5033633;28;20068;-75
2022/09/11 03:55:05;;;;;;;16.50;12.07;;;;;;;;;;5033319;28;20076;-74
2022/09/11 03:57:34;;;;;;;14.70;11.52;;;;;;;;;;5033556;28;20128;-74
2022/09/11 04:00:01;;;;;;;14.95;12.50;;;;;;;;;;5051430;28;20457;-74
2022/09/11 04:02:27;;;;;;;16.77;12.15;;;;;;;;;;5033621;28;20564;-74
2022/09/11 04:04:53;;;;;;;12.68;11.20;;;;;;;;;;5033214;28;20054;-74
2022/09/11 04:07:19;;;;;;;14.77;12.38;;;;;;;;;;5051395;28;20398;-74
2022/09/11 04:09:45;;;;;;;14.82;11.05;;;;;;;;;;5016934;28;20327;-74
2022/09/11 04:12:11;;;;;;;13.38;11.85;;;;;;;;;;5033753;28;20048;-74
2022/09/11 04:14:37;;;;;;;14.13;11.57;;;;;;;;;;5033111;28;20510;-75
2022/09/11 04:17:05;;;;;;;14.20;10.63;;;;;;;;;;5051536;28;20044;-75
2022/09/11 04:19:31;;;;;;;15.07;10.93;;;;;;;;;;5033482;28;20045;-74
2022/09/11 04:21:57;;;;;;;13.07;11.57;;;;;;;;;;5033579;28;20041;-74
2022/09/11 04:24:22;;;;;;;12.57;11.02;;;;;;;;;;5033391;28;20037;-74
2022/09/11 04:26:48;;;;;;;14.68;11.43;;;;;;;;;;5033486;28;20123;-74
2022/09/11 04:29:16;;;;;;;14.88;11.25;;;14.00;99.90;;;;;;5051139;28;20099;-74
2022/09/11 04:31:42;;;;;;;12.30;10.95;;;14.10;99.90;;;;;;5033172;28;20040;-74
2022/09/11 04:34:08;;;;;;;15.63;10.43;;;14.00;99.90;;;;;;5050939;28;20043;-74
2022/09/11 04:36:34;;;;;;;12.77;11.27;;;;;;;;;;5033292;28;20057;-74
2022/09/11 04:39:00;;;;;;;11.43;10.10;;;;;;;;;;5033106;28;20055;-74
2022/09/11 04:41:27;;;;;;;13.82;10.88;;;;;;;;;;5033625;28;20040;-74
2022/09/11 04:43:55;;;;;;;15.52;10.60;;;;;;;;;;5054567;28;20120;-75
2022/09/11 04:46:22;;;;;;;13.68;10.85;;;;;;;;;;5036740;28;20080;-74
2022/09/11 04:48:52;;;;;;;13.95;11.65;;;;;;;;;;5054860;28;20041;-74
2022/09/11 04:51:25;;;;;;;11.88;10.02;;;;;;;;;;5036624;28;20044;-74
2022/09/11 04:53:53;;;;;;;12.40;9.88;;;;;;;;;;5036398;28;20403;-75
2022/09/11 04:56:22;;;;;;;13.45;10.40;;;;;;;;;;5036771;28;20491;-74
2022/09/11 04:58:56;;;;;;;12.25;9.13;;;13.60;99.90;;;;;;5036740;28;20087;-74
2022/09/11 05:01:23;;;;;;;13.90;10.27;;;13.60;99.90;;;;;;5036902;28;20045;-74
2022/09/11 05:03:48;;;;;;;12.55;9.30;;;13.80;99.90;;;;;;5019803;28;20040;-74
2022/09/11 05:06:15;;;;;;;11.65;9.98;;;;;;;;;;5054132;28;20575;-75
2022/09/11 05:08:43;;;;;;;13.90;9.95;;;13.60;99.90;;;;;;5036495;28;20410;-74
2022/09/11 05:11:12;;;;;;;12.18;9.98;;;13.60;99.90;;;;;;5036256;28;20498;-74
2022/09/11 05:13:38;;;;;;;11.55;9.65;;;13.50;99.90;;;;;;5019855;28;20510;-74
2022/09/11 05:16:08;;;;;;;11.07;9.88;;;13.60;99.90;;;;;;5036007;28;20041;-74
2022/09/11 05:18:33;;;;;;;12.52;10.07;;;13.50;99.90;;;;;;5053908;28;20406;-74
2022/09/11 05:21:05;;;;;;;13.10;9.95;;;13.60;99.90;;;;;;5036414;28;20048;-74
2022/09/11 05:23:31;;;;;;;11.27;9.90;;;13.70;99.90;;;;;;5054125;28;20076;-74
2022/09/11 05:25:58;;;;;;;11.63;10.05;;;13.70;99.90;;;;;;5036022;28;20045;-75
2022/09/11 05:28:25;;;;;;;10.60;9.48;;;13.60;99.90;;;;;;5035921;28;20037;-74
2022/09/11 05:30:52;;;;;;;11.48;9.40;;;;;;;;;;5055302;22;20472;-75
2022/09/11 05:33:18;;;;;;;15.98;10.18;;;;;;;;;;5032347;28;20558;-74
2022/09/11 05:35:43;;;;;;;11.27;9.95;;;13.90;99.90;;;;;;5033525;28;20073;-75
2022/09/11 05:38:12;;;;;;;11.20;9.98;;;;;;;;;;5032549;28;20072;-75
2022/09/11 05:40:51;;;;;;;12.95;9.77;;;13.90;99.90;;;;;;5033535;28;20120;-75
2022/09/11 05:43:18;;;;;;;10.63;9.52;;;13.90;99.90;;;;;;5015999;28;20037;-75
2022/09/11 05:45:44;;;;;;;11.90;9.48;;;14.00;99.90;;;;;;5015529;28;20047;-75
2022/09/11 05:48:11;;;;;;;10.90;9.57;;;14.30;99.90;;;;;;5031998;28;20049;-75
2022/09/11 05:50:37;;;;;;;11.48;9.30;;;14.20;99.90;;;;;;5031901;28;20041;-75
2022/09/11 05:53:04;;;;;;;13.57;10.88;;;14.10;99.90;;;;;;5031294;28;20037;-75
2022/09/11 05:55:36;;;;;;;11.50;9.65;;;14.30;99.90;;;;;;5031540;28;20629;-75
2022/09/11 05:58:02;;;;;;;11.60;9.63;;;14.30;99.90;;;;;;5015348;28;20038;-75
2022/09/11 06:00:29;;;;;;;11.70;9.80;;;14.40;99.90;;;;;;5031775;28;20469;-75
2022/09/11 06:02:54;;;;;;;13.05;9.82;;;14.30;99.90;;;;;;5031745;28;20102;-74
2022/09/11 06:05:20;;;;;;;13.00;9.98;;;14.40;99.90;;;;;;5014988;28;20037;-75
2022/09/11 06:07:46;;;;;;;12.82;11.45;;;14.50;99.90;;;;;;5031636;28;20499;-75
2022/09/11 06:10:11;;;;;;;13.23;10.82;;;14.30;99.90;;;;;;5032922;28;20040;-75
2022/09/11 06:12:37;;;;;;;12.00;10.25;;;14.50;99.90;;;;;;5031465;28;20396;-75
2022/09/11 06:15:03;;;;;;;14.52;10.07;;;16.00;99.90;;;;;;5032448;28;20045;-75
2022/09/11 06:17:28;;;;;;;11.38;10.23;;;14.40;99.90;;;;;;5032946;28;20072;-75
2022/09/11 06:19:54;;;;;;;11.95;10.68;;;16.00;99.90;;;;;;5031736;28;20033;-75
2022/09/11 06:22:20;;;;;;;13.50;10.85;;;14.60;99.90;;;;;;5014898;28;20124;-75
2022/09/11 06:24:48;;;;;;;13.55;10.95;;;15.20;99.90;;;;;;5031210;28;20480;-75
2022/09/11 06:27:14;;;;;;;11.80;10.30;;;14.60;99.90;;;;;;5032481;28;20045;-75
2022/09/11 06:29:42;;;;;;;14.55;11.35;;;14.40;99.90;;;;;;5032551;28;20384;-75
2022/09/11 06:32:08;;;;;;;14.00;10.57;;;14.60;99.90;;;;;;5032635;28;20045;-75
2022/09/11 06:34:34;;;;;;;12.43;10.30;;;15.60;99.90;;;;;;5032384;28;20039;-75
2022/09/11 06:37:00;;;;;;;13.07;10.38;;;15.00;99.90;;;;;;5032878;28;20038;-75
2022/09/11 06:39:25;;;;;;;11.52;10.10;;;14.70;99.90;;;;;;5030940;28;20029;-75
2022/09/11 06:41:52;;;;;;;12.90;10.07;;;15.10;99.90;;;;;;5030925;28;20132;-75
2022/09/11 06:44:18;;;;;;;14.20;11.10;;;15.70;99.90;;;;;;5030772;28;20491;-75
2022/09/11 06:46:45;;;;;;;12.60;9.98;;;15.20;99.90;;;;;;5014766;28;20044;-75
2022/09/11 06:49:11;;;;;;;11.88;10.68;;;15.20;99.90;;;;;;5032141;28;20410;-75
2022/09/11 06:51:38;;;;;;;12.15;10.85;;;15.50;99.90;;;;;;5014522;28;20041;-75
2022/09/11 06:54:04;;;;;;;12.85;10.07;;;15.90;99.90;;;;;;5031888;28;20055;-75
2022/09/11 06:56:33;;;;;;;11.20;10.10;;;15.50;99.90;;;;;;5030696;28;20033;-75
2022/09/11 06:58:59;;;;;;;14.02;9.90;;;15.50;99.90;;;;;;5032133;28;20439;-75
2022/09/11 07:01:27;;;;;;;15.45;11.07;;;16.50;99.90;;;;;;5032095;28;20065;-75
2022/09/11 07:03:54;;;;;;;15.30;11.48;;;15.80;99.90;;;;;;5030758;28;20069;-74
2022/09/11 07:06:23;;;;;;;13.55;10.02;;;15.90;99.90;;;;;;5030889;28;20495;-75
2022/09/11 07:09:01;;;;;;;10.35;9.15;;;16.70;99.90;;;;;;5030450;28;20049;-75
2022/09/11 07:11:31;;;;;;;12.25;9.23;;;16.10;99.90;;;;;;5030526;28;20515;-75
2022/09/11 07:13:58;;;;;;;11.23;9.60;;;16.20;99.90;;;;;;5031587;28;20124;-75
2022/09/11 07:16:24;;;;;;;12.07;10.05;;;17.20;99.90;;;;;;5031944;28;20069;-75
2022/09/11 07:18:50;;;;;;;9.98;8.50;;;16.40;99.90;;;;;;5030347;28;20038;-75
2022/09/11 07:21:22;;;;;;;11.93;9.48;;;17.20;99.90;;;;;;5030380;28;20043;-75
2022/09/11 07:23:50;;;;;;;12.32;11.00;;;17.30;99.90;;;;;;5030344;28;20093;-74
2022/09/11 07:26:17;;;;;;;10.68;8.00;;;16.70;99.90;;;;;;5030508;28;20037;-75
2022/09/11 07:28:42;;;;;;;11.52;9.48;;;17.90;99.90;;;;;;5030267;28;20041;-75
2022/09/11 07:31:20;;;;;;;9.77;8.52;;;17.10;99.90;;;;;;5030334;28;20123;-75
2022/09/11 07:33:49;;;;;;;11.93;9.18;;;16.70;99.90;;;;;;5030156;28;20300;-74
2022/09/11 07:36:20;;;;;;;10.70;8.65;;;17.30;99.90;;;;;;5031614;28;20399;-76
2022/09/11 07:38:47;;;;;;;10.27;8.65;;;17.00;99.90;;;;;;5013769;28;20036;-75
2022/09/11 07:41:15;;;;;;;10.98;8.73;;;17.80;99.90;;;;;;5031521;28;20115;-75
2022/09/11 07:43:44;;;;;;;15.32;10.35;;;17.40;99.90;;;;;;5030159;28;20088;-75
2022/09/11 07:46:10;;;;;;;12.95;9.30;;;17.30;99.90;;;;;;5030043;28;20103;-76
2022/09/11 07:48:37;;;;;;;11.52;9.85;;;17.40;99.90;;;;;;5031378;28;20475;-75
2022/09/11 07:51:06;;;;;;;10.32;8.43;;;17.40;99.90;;;;;;5030250;28;20056;-76
2022/09/11 07:53:38;;;;;;;11.85;8.45;;;17.50;99.90;;;;;;5013457;28;20038;-76
2022/09/11 07:56:08;;;;;;;9.10;7.80;;;18.50;99.90;;;;;;5029687;28;20030;-76
2022/09/11 07:58:36;;;;;;;11.52;8.55;;;17.60;99.90;;;;;;5030236;28;20042;-76
2022/09/11 08:01:04;;;;;;;8.43;6.45;;;17.90;99.90;;;;;;5029901;28;20041;-76
2022/09/11 08:03:30;;;;;;;10.73;7.38;;;18.10;99.90;;;;;;5030007;28;20046;-75
2022/09/11 08:06:01;;;;;;;9.32;7.10;;;19.10;99.90;;;;;;5031361;28;20069;-76
2022/09/11 08:08:28;;;;;;;8.95;6.57;;;19.30;99.90;;;;;;5030172;28;20049;-76
2022/09/11 08:10:55;;;;;;;9.27;6.78;;;18.10;99.90;;;;;;5030274;28;20523;-76
2022/09/11 08:13:21;;;;;;;7.78;6.28;;;18.30;99.90;;;;;;5013885;28;20049;-76
2022/09/11 08:15:47;;;;;;;10.60;7.47;;;18.30;99.90;;;;;;5031274;28;20052;-76
2022/09/11 08:18:13;;;;;;;8.65;6.65;;;19.10;99.90;;;;;;5034288;28;20047;-75
2022/09/11 08:20:39;;;;;;;10.02;6.85;;;18.50;99.90;;;;;;5034896;28;20449;-75
2022/09/11 08:23:05;;;;;;;10.50;7.25;;;19.30;99.90;;;;;;5034990;28;20041;-76
2022/09/11 08:25:30;;;;;;;6.60;5.65;;;19.40;99.90;;;;;;5034579;28;20117;-76
2022/09/11 08:27:56;;;;;;;9.25;6.28;;;18.50;99.90;;;;;;5028660;28;20610;-74
2022/09/11 08:30:22;;;;;;;9.20;6.82;;;18.50;99.90;;;;;;5031097;28;20045;-75
2022/09/11 08:32:47;;;;;;;13.40;7.70;;;19.30;99.90;;;;;;5029962;28;20095;-75
2022/09/11 08:35:13;;;;;;;7.07;6.38;;;19.10;99.90;;;;;;5030865;28;20033;-75
2022/09/11 08:37:39;;;;;;;8.98;5.80;;;18.10;99.90;;;;;;5029737;28;20068;-75
2022/09/11 08:40:06;;;;;;;6.22;5.18;;;19.30;99.90;;;;;;5027760;28;20033;-75
2022/09/11 08:42:34;;;;;;;11.02;7.90;;;18.70;99.90;;;;;;5024399;28;20052;-75
2022/09/11 08:45:03;;;;;;;7.40;5.00;;;18.60;99.90;;;;;;5002659;28;20629;-73
2022/09/11 08:47:33;;;;;;;6.55;4.60;;;18.60;99.90;;;;;;5027666;28;20068;-74
2022/09/11 08:50:07;;;;;;;7.50;4.78;;;18.80;99.90;;;;;;5029074;28;20586;-75
2022/09/11 08:52:35;;;;;;;7.88;4.93;;;18.60;99.90;;;;;;5029257;28;20080;-74
2022/09/11 08:55:01;;;;;;;9.43;5.82;;;18.90;99.90;;;;;;5031005;28;20052;-74
2022/09/11 08:57:30;;;;;;;7.57;4.85;;;18.80;99.90;;;;;;5030554;28;20045;-74
2022/09/11 09:00:05;;;;;;;8.00;5.35;;;19.30;99.90;;;;;;5030736;28;20403;-74
2022/09/11 09:02:37;;;;;;;7.20;4.00;;;19.40;99.90;;;;;;5030892;28;20045;-74
2022/09/11 09:05:38;;;;;;;7.37;5.67;;;19.60;99.90;;;;;;5030426;28;20088;-74
2022/09/11 09:08:38;;;;;;;9.77;4.90;;;19.80;99.90;;;;;;4953398;28;20141;-73
2022/09/11 09:11:08;;;;;;;7.68;5.40;;;20.10;99.90;;;;;;5024365;28;20041;-73
2022/09/11 09:13:46;;;;;;;7.63;4.80;;;19.70;99.90;;;;;;5029041;28;20477;-73
2022/09/11 09:16:28;;;;;;;8.02;4.95;;;19.80;99.90;;;;;;5029955;28;20047;-73
2022/09/11 09:19:02;;;;;;;7.90;4.38;;;19.60;99.90;;;;;;5027224;28;20041;-73
2022/09/11 09:21:35;;;;;;;8.32;4.47;;;19.80;99.90;;;;;;5028668;28;20033;-72
2022/09/11 09:24:04;;;;;;;;;;;19.70;99.90;;;;;;5009011;28;20045;-73
2022/09/11 09:26:38;;;;;;;9.02;4.85;;;18.90;99.90;;;;;;5029068;28;19921;-74
2022/09/11 09:29:12;;;;;;;6.75;4.97;;;19.60;99.90;;;;;;5027486;28;20045;-73
2022/09/11 09:31:40;;;;;;;6.10;3.85;;;21.20;99.90;;;;;;5028889;28;20506;-74
2022/09/11 09:34:20;;;;;;;6.60;3.40;;;21.40;99.90;;;;;;5028405;28;20044;-74
2022/09/11 09:36:55;;;;;;;4.40;3.00;;;19.50;99.90;;;;;;5025439;28;20041;-74
2022/09/11 09:39:22;;;;;;;5.82;4.10;;;19.40;99.90;;;;;;5028745;28;20045;-74
2022/09/11 09:42:02;;;;;;;5.13;3.40;;;20.10;99.90;;;;;;5029853;28;20495;-74
2022/09/11 09:44:49;;;;;;;8.32;3.67;;;20.10;99.90;;;;;;5029699;28;20041;-74
2022/09/11 09:47:15;;;;;;;7.07;3.97;;;20.30;99.90;;;;;;5029778;28;20075;-73
2022/09/11 09:49:42;;;;;;;5.07;3.53;;;20.20;99.90;;;;;;5026610;28;20418;-73
2022/09/11 09:52:21;;;;;;;6.25;3.47;;;20.50;99.90;;;;;;5029491;28;20033;-73
2022/09/11 09:55:00;;;;;;;7.68;3.60;;;21.80;99.90;;;;;;5027054;28;20069;-75
2022/09/11 09:57:33;;;;;;;6.65;3.28;;;20.60;99.90;;;;;;5027522;28;20033;-74
2022/09/11 10:00:08;;;;;;;5.60;2.90;;;20.80;99.90;;;;;;5028301;28;20041;-73
2022/09/11 10:02:38;;;;;;;6.97;3.35;;;21.10;99.90;;;;;;5025548;28;20033;-73
2022/09/11 10:05:14;;;;;;;6.65;3.63;;;21.00;99.90;;;;;;5028205;28;20051;-73
2022/09/11 10:07:57;;;;;;;6.35;4.15;;;21.00;99.90;;;;;;5030405;28;20046;-73
2022/09/11 10:10:30;;;;;;;7.03;3.17;;;21.10;99.90;;;;;;5032295;28;20095;-75
2022/09/11 10:12:59;;;;;;;6.85;3.92;;;21.20;99.90;;;;;;5029153;28;20084;-73
2022/09/11 10:15:26;;;;;;;5.38;2.38;;;21.10;99.90;;;;;;5032386;28;20396;-73
2022/09/11 10:17:52;;;;;;;8.15;2.60;;;21.30;99.90;;;;;;5015059;28;20128;-74
2022/09/11 10:20:18;;;;;;;4.55;2.00;;;21.30;99.90;;;;;;5014542;28;20527;-74
2022/09/11 10:22:45;;;;;;;5.18;2.28;;;22.40;99.90;;;;;;5031141;28;20072;-75
2022/09/11 10:25:25;;;;;;;4.30;1.60;;;22.40;99.90;;;;;;5032422;28;20095;-75
2022/09/11 10:28:02;;;;;;;3.65;1.30;;;21.20;99.90;;;;;;5047884;28;20087;-76
2022/09/11 10:30:40;;;;;;;4.40;1.40;;;21.10;99.90;;;;;;5034401;28;20045;-75
2022/09/11 10:33:41;;;;;;;4.10;1.65;;;21.00;99.90;;;;;;5051059;28;20076;-75
2022/09/11 10:36:08;;;;;;;2.63;1.10;;;21.10;99.90;;;;;;5047571;28;20594;-75
2022/09/11 10:38:46;;;;;;;2.72;1.15;;;21.20;99.90;;;;;;5051085;28;20558;-75
2022/09/11 10:41:12;;;;;;;3.30;1.73;;;21.50;99.90;;;;;;5034442;28;20037;-75
2022/09/11 10:43:49;;;;;;;4.50;1.40;;;21.70;99.90;;;;;;5050941;28;20506;-75
2022/09/11 10:46:18;;;;;;;5.63;2.25;;;21.80;99.90;;;;;;5012853;28;20499;-76
2022/09/11 10:49:05;;;;;;;5.95;1.67;;;22.00;99.90;;;;;;5032423;28;20045;-75
2022/09/11 10:51:34;;;;;;;5.90;1.42;;;21.90;99.90;;;;;;5032855;28;20692;-75
2022/09/11 10:54:28;;;;;;;5.55;2.03;;;23.20;99.90;;;;;;5031080;28;20076;-75
2022/09/11 10:57:03;;;;;;;4.05;2.03;;;22.10;99.90;;;;;;5030968;28;20129;-75
2022/09/11 10:59:46;;;;;;;3.90;1.50;;;22.20;99.90;;;;;;5030716;28;20037;-75
2022/09/11 11:02:25;;;;;;;2.78;1.75;;;22.30;99.90;;;;;;5031017;28;20056;-75
2022/09/11 11:04:51;;;;;;;4.75;1.73;;;22.30;99.90;;;;;;5043299;28;20029;-75
2022/09/11 11:07:40;;;;;;;3.67;1.70;;;22.70;99.90;;;;;;5029718;28;20466;-75
2022/09/11 11:10:20;;;;;;;7.05;2.20;;;22.30;99.90;;;;;;5030016;28;20517;-75
2022/09/11 11:13:13;;;;;;;2.55;1.70;;;22.00;99.90;;;;;;5030428;28;20041;-77
2022/09/11 11:15:51;;;;;;;4.97;1.70;;;22.60;99.90;;;;;;5030415;28;20136;-76
2022/09/11 11:18:59;;;;;;;4.55;1.80;;;22.50;99.90;;;;;;5029575;28;20065;-75
2022/09/11 11:21:38;;;;;;;1.70;1.33;;;22.80;99.90;;;;;;5030393;28;20038;-75
2022/09/11 11:24:41;;;;;;;4.00;1.75;;;23.10;99.90;;;;;;5029921;28;20314;-74
2022/09/11 11:27:32;;;;;;;3.67;1.42;;;22.80;99.90;;;;;;5030345;28;20041;-75
2022/09/11 11:30:01;;;;;;;4.18;1.55;;;22.40;99.90;;;;;;5059141;22;20076;-74
2022/09/11 11:32:45;;;;;;;2.63;1.40;;;23.30;99.90;;;;;;5034017;28;20061;-74
2022/09/11 11:35:56;;;;;;;5.55;2.78;;;22.50;99.90;;;;;;5050580;28;20045;-74
2022/09/11 11:38:59;;;;;;;5.03;1.88;;;22.10;99.90;;;;;;5068773;28;20048;-74
2022/09/11 11:41:29;;;;;;;4.63;1.90;;;21.90;99.90;;;;;;5070844;28;20041;-74
2022/09/11 11:43:58;;;;;;;3.47;1.80;;;23.20;99.90;;;;;;5053580;28;20493;-74
2022/09/11 11:46:37;;;;;;;5.15;1.75;;;24.00;99.90;;;;;;5054204;28;20410;-75
2022/09/11 11:49:44;;;;;;;3.13;2.22;;;21.20;99.90;;;;;;5070954;28;20041;-77
2022/09/11 11:52:22;;;;;;;4.10;2.13;;;21.60;99.90;;;;;;5056241;28;20173;-76
2022/09/11 11:55:02;;;;;;;3.08;2.17;;;21.70;99.90;;;;;;5075182;28;20045;-75
2022/09/11 11:57:37;;;;;;;4.32;2.53;;;21.80;99.90;;;;;;5074759;28;20124;-73
2022/09/11 12:00:13;;;;;;;3.97;1.70;;;22.40;99.90;;;;;;5077768;28;20091;-75
2022/09/11 12:03:03;;;;;;;3.70;1.80;;;21.80;99.90;;;;;;5056765;28;20535;-75
2022/09/11 12:05:46;;;;;;;5.68;2.10;;;22.50;99.90;;;;;;5056755;28;20043;-74
2022/09/11 12:08:15;;;;;;;2.80;1.50;;;21.10;99.90;;;;;;5063761;28;20072;-74
2022/09/11 12:11:06;;;;;;;3.55;1.73;;;21.00;99.90;;;;;;5049696;28;20570;-74
2022/09/11 12:13:44;;;;;;;3.55;1.80;;;22.30;99.90;;;;;;5047161;28;20048;-74
2022/09/11 12:16:27;;;;;;;5.65;2.10;;;22.80;99.90;;;;;;5054580;28;20044;-74
2022/09/11 12:19:26;;;;;;;3.83;1.88;;;22.90;99.90;;;;;;5062380;28;20048;-74
2022/09/11 12:22:24;;;;;;;3.53;1.83;;;23.30;99.90;;;;;;5075128;28;20375;-74
2022/09/11 12:24:59;;;;;;;2.90;1.80;;;23.40;99.90;;;;;;5073210;28;20395;-74
2022/09/11 12:27:34;;;;;;;2.22;1.95;;;23.30;99.90;;;;;;5074732;28;20047;-76
2022/09/11 12:33:43;;;;;;;2.47;1.25;;;23.60;99.90;;;;;;5064177;28;20454;-74
2022/09/11 12:36:37;;;;;;;3.83;1.52;;;21.10;99.90;;;;;;5075225;28;20129;-78
2022/09/11 12:39:52;;;;;;;4.82;1.90;;;23.80;99.90;;;;;;5074056;28;20498;-77
2022/09/11 12:42:24;;;;;;;1.35;1.17;;;23.80;99.70;;;;;;5057636;28;20036;-76
2022/09/11 12:45:16;;;;;;;3.08;1.50;;;23.90;99.90;;;;;;5055518;28;20411;-78
2022/09/11 12:47:45;;;;;;;2.75;1.60;;;21.60;99.90;;;;;;5066457;28;20041;-78
2022/09/11 12:50:19;;;;;;;4.40;2.40;;;24.60;99.90;;;;;;5058176;28;20049;-77
2022/09/11 12:53:01;;;;;;;3.85;1.88;;;24.50;99.80;;;;;;5074988;28;20040;-77
2022/09/11 12:55:43;;;;;;;2.97;1.30;;;23.40;99.70;;;;;;5056939;28;20529;-77
2022/09/11 12:58:18;;;;;;;5.33;2.80;;;23.00;99.90;;;;;;5056571;28;20048;-76
2022/09/11 13:01:05;;;;;;;3.45;1.50;;;23.20;99.90;;;;;;5075150;28;20367;-77
2022/09/11 13:03:31;;;;;;;3.10;1.50;;;21.80;99.90;;;;;;5056446;28;20418;-77
2022/09/11 13:06:17;;;;;;;4.22;1.92;;;23.50;99.90;;;;;;5055082;28;20121;-77
2022/09/11 13:09:04;;;;;;;1.80;1.33;;;23.80;99.90;;;;;;5053874;28;20048;-76
2022/09/11 13:11:44;;;;;;;3.40;1.27;;;23.70;99.90;;;;;;5037205;28;20056;-77
2022/09/11 13:14:45;;;;;;;2.83;1.73;;;23.60;99.70;;;;;;5036680;28;20056;-77
2022/09/11 13:17:30;;;;;;;5.10;1.50;;;23.40;99.20;;;;;;4986480;28;20057;-77
2022/09/11 13:20:21;;;;;;;3.83;1.80;;;23.90;99.20;;;;;;5036830;28;20033;-76
2022/09/11 13:23:18;;;;;;;2.15;1.67;;;23.60;99.60;;;;;;5054369;28;20574;-77